Time;durP1;ratioP1;P1;durP2;ratioP2;P2;SDS_P1;SDS_P2;PMS_P1;PMS_P2;Temp;Humidity;BMP_temperature;BMP_pressure;BME280_temperature;BME280_humidity;BME280_pressure;Samples;Min_cycle;Max_cycle;Signal;HPM_P1;HPM_P2
2024/03/16 00:00:13;;;;;;;6.25;3.80;;;;;;;11.81;81.40;97925.44;5067859;28;20032;-76
2024/03/16 00:02:38;;;;;;;4.53;3.42;;;;;;;11.84;81.30;97933.03;5066601;28;20660;-76
2024/03/16 00:05:04;;;;;;;5.78;3.60;;;;;;;11.91;81.54;97939.03;5073300;28;20032;-76
2024/03/16 00:07:29;;;;;;;5.00;3.42;;;;;;;11.77;81.64;97916.25;5072589;28;20028;-76
2024/03/16 00:09:54;;;;;;;5.97;3.70;;;;;;;11.78;81.48;97912.50;5060176;28;20036;-76
2024/03/16 00:12:21;;;;;;;5.72;4.20;;;;;;;11.88;81.36;97934.13;5060903;28;20099;-75
2024/03/16 00:14:50;;;;;;;8.32;3.72;;;;;;;11.82;81.33;97918.16;5058737;28;20046;-75
2024/03/16 00:17:17;;;;;;;5.80;3.80;;;;;;;11.85;81.02;97929.28;5072751;28;20568;-75
2024/03/16 00:19:45;;;;;;;7.47;3.33;;;;;;;11.75;81.67;97918.41;5058789;28;20040;-75
2024/03/16 00:22:11;;;;;;;6.40;3.63;;;;;;;11.82;80.79;97924.38;5072517;28;20521;-75
2024/03/16 00:24:36;;;;;;;5.20;3.78;;;;;;;11.81;81.53;97920.03;5070967;28;20028;-76
2024/03/16 00:27:02;;;;;;;7.70;4.20;;;;;;;11.68;80.77;97896.22;5073275;28;20368;-76
2024/03/16 00:29:27;;;;;;;5.85;4.28;;;;;;;11.72;81.10;97908.13;5053551;28;20033;-76
2024/03/16 00:31:53;;;;;;;7.55;3.90;;;;;;;11.70;80.90;97899.47;5083492;28;20030;-76
2024/03/16 00:34:19;;;;;;;7.20;3.92;;;;;;;11.73;80.90;97909.75;5064538;28;20054;-75
2024/03/16 00:36:44;;;;;;;4.55;3.78;;;;;;;11.70;81.05;97912.97;5074197;28;20092;-75
2024/03/16 00:39:18;;;;;;;6.30;4.00;;;;;;;11.62;81.20;97899.94;5074484;28;20115;-75
2024/03/16 00:41:43;;;;;;;4.35;3.95;;;;;;;11.66;80.82;97903.72;5066243;28;20514;-75
2024/03/16 00:44:08;;;;;;;6.25;3.80;;;;;;;11.73;80.38;97915.16;5083106;28;20067;-75
2024/03/16 00:46:34;;;;;;;4.60;3.92;;;;;;;11.62;81.17;97908.03;5060683;28;20043;-75
2024/03/16 00:49:00;;;;;;;7.00;4.43;;;;;;;11.62;81.30;97899.94;5068385;28;20403;-75
2024/03/16 00:51:28;;;;;;;5.55;3.92;;;;;;;11.66;80.88;97901.84;5092970;28;20039;-75
2024/03/16 00:53:54;;;;;;;6.32;4.50;;;;;;;11.61;81.25;97906.38;5076768;28;20424;-75
2024/03/16 00:56:20;;;;;;;6.57;4.72;;;;;;;11.59;81.03;97909.34;5076815;28;20036;-75
2024/03/16 00:58:46;;;;;;;8.98;4.85;;;;;;;11.58;81.93;97906.88;5059706;28;20032;-75
2024/03/16 01:01:12;;;;;;;7.78;6.00;;;;;;;11.50;81.43;97899.28;5059995;28;20039;-75
2024/03/16 01:03:37;;;;;;;8.43;5.30;;;;;;;11.47;81.39;97899.78;5074553;28;20099;-75
2024/03/16 01:06:03;;;;;;;7.25;5.38;;;;;;;11.53;81.62;97909.53;5076471;28;20039;-75
2024/03/16 01:08:28;;;;;;;6.80;4.88;;;;;;;11.61;81.58;97917.19;5076376;28;20099;-75
2024/03/16 01:10:54;;;;;;;6.93;5.20;;;;;;;11.56;82.13;97919.81;5072421;28;20040;-75
2024/03/16 01:13:20;;;;;;;9.40;5.03;;;;;;;11.60;81.92;97913.66;5052723;28;20158;-75
2024/03/16 01:15:45;;;;;;;6.63;5.25;;;;;;;11.61;81.71;97917.19;5075684;28;20410;-75
2024/03/16 01:18:10;;;;;;;7.00;5.05;;;;;;;11.50;81.95;97915.47;5070979;28;20024;-75
2024/03/16 01:20:36;;;;;;;9.80;6.05;;;;;;;11.41;82.19;97890.06;5066246;28;20594;-75
2024/03/16 01:23:04;;;;;;;8.95;5.43;;;;;;;11.46;82.21;97904.38;5072558;28;20021;-75
2024/03/16 01:25:29;;;;;;;6.93;4.93;;;;;;;11.46;82.41;97898.19;5076130;28;20044;-75
2024/03/16 01:27:54;;;;;;;6.68;5.10;;;;;;;11.47;82.45;97906.00;5055747;28;20088;-75
2024/03/16 01:30:21;;;;;;;6.65;4.95;;;;;;;11.56;82.54;97931.44;5072685;28;20470;-75
2024/03/16 01:32:46;;;;;;;6.13;4.75;;;;;;;11.49;83.05;97919.22;5070733;28;20103;-75
2024/03/16 01:35:12;;;;;;;7.63;4.97;;;;;;;11.43;82.79;97914.88;5075675;28;20035;-75
2024/03/16 01:37:37;;;;;;;7.05;5.55;;;;;;;11.51;82.44;97925.16;5073824;28;20134;-75
2024/03/16 01:40:04;;;;;;;6.18;5.47;;;;;;;11.42;82.44;97897.88;5069526;28;20046;-75
2024/03/16 01:42:29;;;;;;;8.68;4.85;;;;;;;11.49;83.27;97924.63;5066745;28;20077;-75
2024/03/16 01:45:15;;;;;;;8.95;5.03;;;;;;;11.57;82.16;97929.56;5076408;28;20036;-75
2024/03/16 01:47:40;;;;;;;7.03;5.18;;;;;;;11.50;82.61;97910.91;5090647;28;20123;-75
2024/03/16 01:50:07;;;;;;;6.75;5.00;;;;;;;11.57;82.55;97929.56;5067548;28;20039;-75
2024/03/16 01:52:32;;;;;;;7.20;5.00;;;;;;;11.58;82.84;97923.06;5075830;28;20036;-76
2024/03/16 01:54:58;;;;;;;5.95;4.85;;;;;;;11.60;83.00;97923.63;5075284;28;20109;-75
2024/03/16 01:57:23;;;;;;;7.97;5.57;;;;;;;11.53;82.87;97920.31;5067723;28;20037;-75
2024/03/16 01:59:49;;;;;;;6.63;5.43;;;;;;;11.59;83.19;97927.41;5075728;28;20103;-75
2024/03/16 02:02:41;;;;;;;6.93;5.20;;;;;;;11.56;82.83;97919.81;5072011;28;20097;-75
2024/03/16 02:05:07;;;;;;;8.30;5.30;;;;;;;11.56;83.18;97920.66;5054058;28;20046;-75
2024/03/16 02:07:34;;;;;;;6.47;5.32;;;;;;;11.54;83.71;97927.38;5067568;28;20032;-75
2024/03/16 02:10:00;;;;;;;8.15;5.00;;;;;;;11.47;83.46;97921.38;5072873;28;20032;-75
2024/03/16 02:12:26;;;;;;;6.78;5.55;;;;;;;11.44;83.24;97916.47;5059470;28;20029;-75
2024/03/16 02:14:51;;;;;;;6.32;5.50;;;;;;;11.55;83.63;97929.78;5066544;28;20039;-75
2024/03/16 02:17:17;;;;;;;7.18;5.68;;;;;;;11.48;83.85;97923.00;5061453;28;20028;-75
2024/03/16 02:19:42;;;;;;;6.20;4.88;;;;;;;11.41;83.75;97911.63;5055157;28;20035;-75
2024/03/16 02:22:08;;;;;;;6.85;4.90;;;;;;;11.43;83.36;97918.38;5069430;28;20391;-76
2024/03/16 02:24:35;;;;;;;6.18;4.97;;;;;;;11.54;83.86;97932.75;5073936;28;20028;-75
2024/03/16 02:27:01;;;;;;;6.53;5.32;;;;;;;11.35;84.11;97923.41;5074905;28;20093;-75
2024/03/16 02:29:32;;;;;;;9.43;5.47;;;;;;;11.43;83.50;97914.88;5067963;28;20044;-75
2024/03/16 02:31:58;;;;;;;5.97;5.03;;;;;;;11.49;83.64;97924.63;5068701;28;20065;-75
2024/03/16 02:34:24;;;;;;;8.10;5.30;;;;;;;11.44;83.49;97917.31;5046384;28;20556;-76
2024/03/16 02:36:49;;;;;;;9.38;4.93;;;;;;;11.52;83.09;97924.94;5066539;28;20055;-75
2024/03/16 02:39:14;;;;;;;5.18;4.47;;;;;;;11.45;83.34;97921.63;5049833;28;20391;-75
2024/03/16 02:41:40;;;;;;;7.43;4.95;;;;;;;11.54;83.36;97938.16;5073554;28;20471;-75
2024/03/16 02:44:05;;;;;;;6.05;4.35;;;;;;;11.46;83.47;97925.16;5065784;28;20032;-75
2024/03/16 02:46:31;;;;;;;5.35;4.50;;;;;;;11.45;83.29;97940.50;5074856;28;20503;-75
2024/03/16 02:48:57;;;;;;;4.60;4.00;;;;;;;11.42;83.68;97934.81;5069279;28;20038;-75
2024/03/16 02:51:22;;;;;;;5.97;3.72;;;;;;;11.36;83.69;97928.56;5074585;28;20039;-75
2024/03/16 02:53:49;;;;;;;5.07;3.80;;;;;;;11.41;83.41;97917.00;5069601;28;20016;-75
2024/03/16 02:56:14;;;;;;;4.40;3.50;;;;;;;11.36;83.36;97928.56;5074420;28;20454;-75
2024/03/16 02:58:39;;;;;;;4.72;3.67;;;;;;;11.44;83.04;97927.28;5074175;28;20059;-75
2024/03/16 03:01:05;;;;;;;5.05;4.38;;;;;;;11.49;83.26;97935.41;5074477;28;20043;-75
2024/03/16 03:03:30;;;;;;;5.10;3.88;;;;;;;11.35;82.91;97929.63;5056776;28;20043;-75
2024/03/16 03:05:56;;;;;;;4.00;3.60;;;;;;;11.28;83.09;97928.19;5054357;28;20052;-75
2024/03/16 03:08:21;;;;;;;6.43;3.72;;;;;;;11.39;82.98;97929.94;5078617;28;20721;-75
2024/03/16 03:10:47;;;;;;;4.18;3.53;;;;;;;11.40;82.83;97932.38;5088810;28;20133;-75
2024/03/16 03:13:12;;;;;;;7.03;3.40;;;;;;;11.48;82.96;97939.19;5067256;28;20024;-75
2024/03/16 03:15:38;;;;;;;7.90;3.17;;;;;;;11.46;82.83;97936.72;5088717;28;20044;-75
2024/03/16 03:18:05;;;;;;;4.22;3.42;;;;;;;11.38;83.09;97928.31;5072915;28;20020;-75
2024/03/16 03:20:30;;;;;;;6.22;2.90;;;;;;;11.39;82.77;97935.34;5063265;28;20087;-75
2024/03/16 03:22:56;;;;;;;5.32;2.90;;;;;;;11.31;82.90;97917.72;5082196;28;20115;-75
2024/03/16 03:25:21;;;;;;;4.47;2.83;;;;;;;11.31;82.90;97919.59;5056889;28;20039;-75
2024/03/16 03:27:47;;;;;;;3.15;2.85;;;;;;;11.39;83.04;97929.94;5071936;28;20025;-75
2024/03/16 03:30:12;;;;;;;5.50;2.80;;;;;;;11.34;83.15;97932.59;5073868;28;20042;-76
2024/03/16 03:32:38;;;;;;;5.47;2.97;;;;;;;11.35;82.76;97928.81;5064930;28;20032;-74
2024/03/16 03:35:05;;;;;;;5.55;2.80;;;;;;;11.33;82.53;97933.63;5073557;28;20119;-75
2024/03/16 03:37:30;;;;;;;5.93;2.90;;;;;;;11.37;83.14;97921.28;5048385;28;20115;-75
2024/03/16 03:39:56;;;;;;;3.45;2.65;;;;;;;11.42;82.58;97932.94;5067203;28;20123;-75
2024/03/16 03:42:29;;;;;;;4.97;2.60;;;;;;;11.50;82.16;97940.56;5058719;28;20024;-76
2024/03/16 03:48:02;;;;;;;3.38;2.70;;;;;;;11.45;82.00;97945.09;5053464;28;20498;-75
2024/03/16 03:50:29;;;;;;;2.97;2.55;;;;;;;11.45;82.85;97937.81;5073901;28;20046;-76
2024/03/16 03:53:01;;;;;;;4.25;3.13;;;;;;;11.32;82.77;97923.94;5067263;28;20027;-76
2024/03/16 03:55:28;;;;;;;4.82;2.70;;;;;;;11.45;82.65;97934.31;5067831;28;20039;-76
2024/03/16 03:57:53;;;;;;;3.78;2.70;;;;;;;11.23;82.37;97903.88;5063343;28;20036;-77
2024/03/16 04:00:20;;;;;;;3.53;2.47;;;;;;;11.47;82.07;97940.25;5062984;28;20060;-76
2024/03/16 04:02:51;;;;;;;3.17;2.45;;;;;;;11.45;82.05;97939.69;5056735;28;20081;-76
2024/03/16 04:05:20;;;;;;;4.00;2.70;;;;;;;11.40;82.46;97942.34;5080729;28;20039;-76
2024/03/16 04:07:58;;;;;;;3.58;2.47;;;;;;;11.35;82.07;97936.91;5085304;28;20467;-76
2024/03/16 04:10:37;;;;;;;3.35;2.40;;;;;;;11.45;82.31;97939.69;5051550;28;20036;-76
2024/03/16 04:13:08;;;;;;;2.50;2.30;;;;;;;11.43;82.12;97941.84;5087832;28;20070;-76
2024/03/16 04:15:35;;;;;;;3.78;2.33;;;;;;;11.46;81.72;97952.13;5066518;28;20526;-76
2024/03/16 04:18:06;;;;;;;2.95;2.40;;;;;;;11.44;82.25;97954.22;5073801;28;20020;-76
2024/03/16 04:20:38;;;;;;;4.10;2.60;;;;;;;11.43;82.50;97953.44;5042344;28;20387;-76
2024/03/16 04:23:08;;;;;;;2.88;2.20;;;;;;;11.44;82.07;97948.84;5048646;28;20040;-77
2024/03/16 04:25:35;;;;;;;2.88;2.40;;;;;;;11.43;82.01;97949.94;5067054;28;20025;-76
2024/03/16 04:28:08;;;;;;;3.38;2.30;;;;;;;11.34;82.26;97936.06;5055746;28;20124;-75
2024/03/16 04:30:42;;;;;;;3.40;2.50;;;;;;;11.41;82.48;97947.47;5076013;28;20024;-76
2024/03/16 04:33:16;;;;;;;3.40;2.70;;;;;;;11.38;82.71;97939.09;5047630;28;20502;-76
2024/03/16 04:35:47;;;;;;;3.75;2.53;;;;;;;11.29;82.43;97929.84;5076447;28;20165;-76
2024/03/16 04:38:13;;;;;;;3.75;2.60;;;;;;;11.35;82.59;97939.59;5067766;28;20046;-75
2024/03/16 04:40:43;;;;;;;3.38;2.55;;;;;;;11.37;82.55;97950.94;5057675;28;20115;-75
2024/03/16 04:43:09;;;;;;;3.33;2.72;;;;;;;11.23;82.22;97930.84;5066369;28;20504;-76
2024/03/16 04:45:35;;;;;;;2.90;2.60;;;;;;;11.29;82.17;97946.00;5090354;28;20027;-75
2024/03/16 04:48:01;;;;;;;4.22;3.10;;;;;;;11.26;82.83;97951.91;5063384;28;20060;-76
2024/03/16 04:50:34;;;;;;;2.85;2.55;;;;;;;11.21;82.53;97938.38;5059261;28;20032;-75
2024/03/16 04:53:05;;;;;;;3.10;2.60;;;;;;;11.23;82.57;97936.22;5063830;28;20039;-75
2024/03/16 04:55:31;;;;;;;4.28;2.90;;;;;;;11.35;82.20;97956.59;5061405;28;20060;-76
2024/03/16 04:58:02;;;;;;;3.45;2.75;;;;;;;11.25;82.23;97936.81;5091286;28;20460;-75
2024/03/16 05:00:28;;;;;;;4.03;2.80;;;;;;;11.23;82.42;97931.66;5077697;28;20510;-76
2024/03/16 05:02:54;;;;;;;3.38;2.70;;;;;;;11.34;82.47;97964.94;5061578;28;20102;-76
2024/03/16 05:05:23;;;;;;;3.92;2.70;;;;;;;11.32;82.95;97956.28;5050878;28;20497;-76
2024/03/16 05:07:48;;;;;;;2.83;2.63;;;;;;;11.29;82.25;97952.22;5087502;28;20394;-76
2024/03/16 05:10:13;;;;;;;4.20;2.80;;;;;;;11.36;82.36;97965.50;5072239;28;20115;-76
2024/03/16 05:12:39;;;;;;;5.45;3.00;;;;;;;11.13;82.59;97943.16;5070435;28;20027;-76
2024/03/16 05:15:05;;;;;;;4.65;2.90;;;;;;;11.29;82.55;97956.78;5073246;28;20118;-75
2024/03/16 05:17:31;;;;;;;3.90;2.95;;;;;;;11.32;82.38;97967.09;5068875;28;20020;-75
2024/03/16 05:19:57;;;;;;;4.47;3.03;;;;;;;11.19;82.92;97946.72;5071354;28;20042;-76
2024/03/16 05:22:23;;;;;;;3.47;2.60;;;;;;;11.28;83.06;97965.94;5103781;28;20581;-76
2024/03/16 05:24:48;;;;;;;7.95;7.15;;;;;;;11.19;82.97;97972.84;5059372;28;20051;-76
2024/03/16 05:27:15;;;;;;;5.85;3.88;;;;;;;11.23;83.08;97974.78;5069197;28;20016;-76
2024/03/16 05:29:40;;;;;;;25.63;23.33;;;;;;;11.26;83.06;97973.47;5096318;28;20043;-76
2024/03/16 05:32:06;;;;;;;5.95;4.55;;;;;;;11.21;83.05;97976.94;5071160;28;20032;-76
2024/03/16 05:34:33;;;;;;;3.55;3.25;;;;;;;11.24;82.98;97976.44;5058299;28;20024;-75
2024/03/16 05:37:01;;;;;;;4.93;3.72;;;;;;;11.13;83.21;97973.88;5049563;28;20028;-74
2024/03/16 05:39:26;;;;;;;4.97;3.53;;;;;;;11.32;82.89;97996.75;5094720;28;20126;-75
2024/03/16 05:41:51;;;;;;;4.63;3.80;;;;;;;11.24;83.08;97997.19;5055854;28;20044;-76
2024/03/16 05:44:17;;;;;;;3.90;3.08;;;;;;;11.17;83.20;97992.00;5054060;28;20065;-75
2024/03/16 05:46:42;;;;;;;7.25;5.57;;;;;;;11.21;83.39;98008.44;5084733;28;20445;-76
2024/03/16 05:49:08;;;;;;;5.13;3.53;;;;;;;11.17;83.55;98004.66;5119896;22;20149;-75
2024/03/16 05:51:33;;;;;;;5.70;4.70;;;;;;;11.23;82.99;98007.13;5059007;28;20391;-75
2024/03/16 05:53:59;;;;;;;4.22;3.80;;;;;;;11.23;82.67;98012.53;5060598;28;20040;-75
2024/03/16 05:56:25;;;;;;;5.47;4.40;;;;;;;11.22;83.55;97999.31;5037127;28;20084;-75
2024/03/16 05:58:50;;;;;;;5.53;3.60;;;;;;;11.00;83.07;97973.19;5058606;28;20516;-74
2024/03/16 06:01:15;;;;;;;5.80;4.40;;;;;;;11.04;83.17;97987.78;5071245;28;20076;-74
2024/03/16 06:03:41;;;;;;;4.40;3.33;;;;;;;11.33;83.09;98025.31;5056428;28;20041;-76
2024/03/16 06:06:07;;;;;;;5.03;4.53;;;;;;;11.10;83.42;98002.16;5044254;28;20415;-77
2024/03/16 06:08:35;;;;;;;6.97;6.20;;;;;;;11.00;83.43;98002.84;5038832;28;20028;-78
2024/03/16 06:11:01;;;;;;;6.60;5.88;;;;;;;11.19;83.71;98026.75;5030972;28;20036;-76
2024/03/16 06:13:27;;;;;;;4.50;3.53;;;;;;;11.25;83.34;98031.16;5047986;28;20119;-77
2024/03/16 06:15:57;;;;;;;5.20;4.22;;;;;;;10.87;83.19;97976.28;5044106;28;20108;-76
2024/03/16 06:18:23;;;;;;;7.10;5.68;;;;;;;11.30;83.27;98050.88;5034864;28;20048;-77
2024/03/16 06:20:49;;;;;;;6.55;4.55;;;;;;;11.23;83.57;98041.34;5059493;28;20052;-76
2024/03/16 06:23:14;;;;;;;5.15;4.65;;;;;;;11.27;83.50;98046.00;5034211;28;20037;-77
2024/03/16 06:25:46;;;;;;;8.00;5.85;;;;;;;11.15;83.18;98029.16;5052543;28;20024;-76
2024/03/16 06:28:14;;;;;;;7.68;5.85;;;;;;;11.16;83.60;98038.03;5047126;28;20032;-76
2024/03/16 06:30:39;;;;;;;7.55;5.75;;;;;;;11.10;83.68;98035.31;5072156;28;20025;-76
2024/03/16 06:33:20;;;;;;;10.18;7.75;;;;;;;11.34;83.84;98067.38;5043106;28;20031;-78
2024/03/16 06:35:47;;;;;;;8.27;6.50;;;;;;;11.25;82.78;98055.44;5038284;28;20036;-76
2024/03/16 06:38:13;;;;;;;28.38;22.20;;;;;;;11.06;83.49;98044.94;5036384;28;20476;-76
2024/03/16 06:40:39;;;;;;;9.18;6.25;;;;;;;11.24;83.60;98059.19;5038988;28;20037;-76
2024/03/16 06:43:04;;;;;;;13.88;9.02;;;;;;;11.20;83.69;98055.34;5036877;28;20035;-76
2024/03/16 06:45:29;;;;;;;28.13;19.30;;;;;;;11.35;83.63;98079.78;5042887;28;20508;-76
2024/03/16 06:47:55;;;;;;;12.90;9.32;;;;;;;11.27;83.53;98061.38;5034199;28;20025;-76
2024/03/16 06:50:23;;;;;;;14.15;10.55;;;;;;;11.35;83.54;98079.78;5056886;28;20053;-78
2024/03/16 06:52:49;;;;;;;6.72;5.88;;;;;;;11.46;83.20;98076.94;5051304;28;20033;-77
2024/03/16 06:55:17;;;;;;;5.80;5.07;;;;;;;11.49;83.30;98083.72;5040012;28;20041;-75
2024/03/16 06:57:43;;;;;;;5.28;4.20;;;;;;;11.28;83.24;98041.41;5055180;28;20042;-75
2024/03/16 07:00:11;;;;;;;6.68;4.20;;;;;;;11.33;84.08;98071.13;5043359;28;20037;-75
2024/03/16 07:02:37;;;;;;;7.30;5.82;;;;;;;11.46;83.59;98071.56;5051365;28;20028;-75
2024/03/16 07:05:02;;;;;;;5.97;4.70;;;;;;;11.52;84.07;98096.72;5032021;28;20051;-75
2024/03/16 07:07:28;;;;;;;5.88;3.25;;;;;;;11.53;83.28;98090.22;5052205;28;20182;-76
2024/03/16 07:09:54;;;;;;;3.58;3.28;;;;;;;11.50;82.85;98071.88;5026328;28;20131;-76
2024/03/16 07:12:21;;;;;;;2.97;2.55;;;;;;;11.42;82.73;98058.84;5069668;28;20024;-77
2024/03/16 07:14:46;;;;;;;2.95;2.60;;;;;;;11.53;82.73;98087.53;5054685;28;20041;-76
2024/03/16 07:17:11;;;;;;;2.80;2.45;;;;;;;11.40;82.51;98082.53;5056746;28;20021;-76
2024/03/16 07:19:37;;;;;;;4.28;3.15;;;;;;;11.54;81.83;98105.34;5056270;28;20032;-76
2024/03/16 07:22:02;;;;;;;4.30;2.90;;;;;;;11.45;82.67;98101.50;5053534;28;20020;-77
2024/03/16 07:24:28;;;;;;;3.10;2.80;;;;;;;11.54;82.10;98078.41;5035880;28;20041;-77
2024/03/16 07:26:54;;;;;;;4.88;4.35;;;;;;;11.69;82.04;98108.28;5035468;28;20028;-77
2024/03/16 07:29:19;;;;;;;65.53;41.72;;;;;;;11.71;81.67;98108.84;5049050;28;20131;-76
2024/03/16 07:31:45;;;;;;;109.70;61.72;;;;;;;11.81;81.26;98118.91;5047284;28;20029;-76
2024/03/16 07:34:10;;;;;;;53.47;31.58;;;;;;;11.66;81.15;98087.16;5045107;28;20124;-76
2024/03/16 07:36:35;;;;;;;61.55;38.55;;;;;;;11.84;80.82;98105.72;5054107;28;20024;-76
2024/03/16 07:39:01;;;;;;;62.45;39.40;;;;;;;11.81;80.70;98111.63;5055726;28;20482;-76
2024/03/16 07:41:26;;;;;;;6.57;5.10;;;;;;;11.86;79.79;98103.56;5039210;28;20025;-76
2024/03/16 07:43:52;;;;;;;3.85;2.42;;;;;;;11.69;79.69;98094.78;5071078;28;20062;-75
2024/03/16 07:46:19;;;;;;;4.47;2.95;;;;;;;11.81;80.11;98119.72;5048069;28;20395;-76
2024/03/16 07:48:45;;;;;;;3.50;2.30;;;;;;;11.81;80.03;98117.00;5054530;28;20036;-76
2024/03/16 07:51:12;;;;;;;2.60;1.98;;;;;;;11.63;80.06;98120.03;5037114;28;20025;-76
2024/03/16 07:53:38;;;;;;;3.17;1.73;;;;;;;11.82;80.06;98131.31;5033234;28;20033;-77
2024/03/16 07:56:04;;;;;;;2.00;1.80;;;;;;;11.70;79.92;98136.88;5062511;28;20025;-76
2024/03/16 07:58:30;;;;;;;4.88;2.38;;;;;;;11.69;79.92;98130.66;5052767;28;20086;-76
2024/03/16 08:00:56;;;;;;;2.80;1.88;;;;;;;11.72;79.35;98102.34;5033660;28;20024;-77
2024/03/16 08:03:21;;;;;;;7.00;4.32;;;;;;;11.89;79.21;98121.97;5032934;28;20090;-76
2024/03/16 08:05:47;;;;;;;4.15;2.35;;;;;;;11.70;79.84;98112.59;5043847;28;20052;-76
2024/03/16 08:08:12;;;;;;;2.78;2.10;;;;;;;11.75;80.07;98139.63;5041119;28;20483;-76
2024/03/16 08:10:38;;;;;;;3.40;2.22;;;;;;;11.68;79.17;98106.63;5054201;28;20020;-76
2024/03/16 08:13:03;;;;;;;5.40;2.17;;;;;;;11.77;79.09;98137.47;5050852;28;20561;-77
2024/03/16 08:15:29;;;;;;;4.60;2.10;;;;;;;11.83;80.01;98144.59;5050742;28;20123;-76
2024/03/16 08:17:56;;;;;;;4.00;2.85;;;;;;;11.75;79.19;98107.25;5038546;28;20040;-76
2024/03/16 08:20:22;;;;;;;2.80;2.28;;;;;;;11.74;79.72;98136.09;5050487;28;20120;-76
2024/03/16 08:22:48;;;;;;;4.00;2.33;;;;;;;11.75;79.52;98145.03;5053767;28;20064;-76
2024/03/16 08:25:17;;;;;;;3.65;2.33;;;;;;;11.81;79.58;98164.78;5050884;28;20035;-75
2024/03/16 08:27:42;;;;;;;4.57;2.35;;;;;;;11.82;79.19;98148.34;5037159;28;20045;-76
2024/03/16 08:30:08;;;;;;;2.83;2.58;;;;;;;11.85;79.70;98147.00;5052661;28;20017;-76
2024/03/16 08:32:34;;;;;;;2.88;2.22;;;;;;;11.87;79.46;98147.56;5068015;28;20400;-76
2024/03/16 08:34:59;;;;;;;3.10;2.78;;;;;;;11.89;79.12;98146.25;5037332;28;20020;-76
2024/03/16 08:37:25;;;;;;;3.83;2.40;;;;;;;11.71;79.30;98127.72;5054589;28;20036;-76
2024/03/16 08:39:50;;;;;;;4.28;2.90;;;;;;;11.88;79.20;98154.63;5050165;28;20640;-76
2024/03/16 08:42:15;;;;;;;4.93;3.00;;;;;;;11.91;79.33;98171.09;5056985;28;20083;-76
2024/03/16 08:44:41;;;;;;;3.95;2.80;;;;;;;11.89;79.66;98162.44;5058189;28;20020;-76
2024/03/16 08:47:06;;;;;;;6.45;2.95;;;;;;;11.94;79.88;98170.59;5056823;28;20040;-76
2024/03/16 08:49:32;;;;;;;2.67;2.33;;;;;;;11.93;79.41;98182.44;5054518;28;20024;-76
2024/03/16 08:52:00;;;;;;;3.17;2.40;;;;;;;11.81;79.73;98176.38;5044577;28;20476;-76
2024/03/16 08:54:26;;;;;;;4.00;2.58;;;;;;;11.73;79.52;98172.25;5053706;28;20021;-76
2024/03/16 08:56:52;;;;;;;3.33;2.35;;;;;;;11.83;79.35;98179.66;5034440;28;20035;-76
2024/03/16 08:59:17;;;;;;;3.47;2.40;;;;;;;12.10;78.86;98191.28;5052749;28;20030;-76
2024/03/16 09:01:43;;;;;;;3.83;2.50;;;;;;;11.66;79.31;98158.13;5035702;28;20052;-76
2024/03/16 09:04:08;;;;;;;2.97;2.15;;;;;;;11.77;79.00;98164.47;5057472;28;20035;-76
2024/03/16 09:06:37;;;;;;;3.75;2.47;;;;;;;11.95;79.18;98193.81;5035031;28;20032;-76
2024/03/16 09:09:05;;;;;;;4.03;2.70;;;;;;;11.92;79.52;98188.94;5056199;28;20020;-76
2024/03/16 09:11:31;;;;;;;3.60;2.67;;;;;;;11.90;78.66;98191.06;5058962;28;20396;-76
2024/03/16 09:13:56;;;;;;;4.13;2.72;;;;;;;11.91;79.19;98181.91;5053835;28;20024;-76
2024/03/16 09:16:21;;;;;;;3.33;2.58;;;;;;;11.94;78.57;98185.97;5041052;28;20044;-77
2024/03/16 09:18:47;;;;;;;3.47;2.40;;;;;;;11.82;79.03;98183.41;5040549;28;20025;-76
2024/03/16 09:21:13;;;;;;;4.72;2.67;;;;;;;11.80;79.47;98196.34;5050361;28;20035;-76
2024/03/16 09:23:38;;;;;;;3.17;2.50;;;;;;;11.79;79.37;98202.78;5058189;28;20040;-77
2024/03/16 09:26:04;;;;;;;4.20;2.75;;;;;;;11.77;79.07;98180.66;5040006;28;20506;-77
2024/03/16 09:28:29;;;;;;;3.25;2.13;;;;;;;11.88;78.85;98193.19;5071592;28;20035;-76
2024/03/16 09:30:55;;;;;;;3.20;2.60;;;;;;;11.67;79.28;98184.03;5065130;28;20044;-77
2024/03/16 09:33:21;;;;;;;5.20;2.58;;;;;;;11.93;78.57;98198.66;5078546;28;20025;-76
2024/03/16 09:35:47;;;;;;;5.15;2.63;;;;;;;12.04;78.67;98203.06;5056073;28;20047;-76
2024/03/16 09:38:12;;;;;;;3.17;2.38;;;;;;;12.09;78.45;98205.84;5055392;28;20021;-76
2024/03/16 09:40:43;;;;;;;3.10;2.25;;;;;;;12.21;78.50;98206.50;5058111;28;20037;-77
2024/03/16 09:43:09;;;;;;;4.28;2.50;;;;;;;12.05;78.63;98217.41;5035097;28;20491;-77
2024/03/16 09:45:35;;;;;;;3.75;2.60;;;;;;;12.15;77.78;98210.25;5045298;28;20020;-76
2024/03/16 09:48:01;;;;;;;3.17;2.33;;;;;;;12.27;77.36;98202.81;5070381;28;20557;-76
2024/03/16 09:50:29;;;;;;;2.38;2.17;;;;;;;12.15;77.12;98215.63;5038084;28;20017;-76
2024/03/16 09:52:55;;;;;;;3.45;2.60;;;;;;;12.09;77.72;98205.84;5052895;28;20403;-76
2024/03/16 09:55:23;;;;;;;3.15;2.30;;;;;;;12.14;77.47;98223.97;5055604;28;20028;-76
2024/03/16 09:57:51;;;;;;;2.85;2.35;;;;;;;11.97;77.21;98196.28;5055228;28;20040;-76
2024/03/16 10:00:16;;;;;;;5.05;2.67;;;;;;;11.89;78.09;98211.03;5061009;28;20529;-77
2024/03/16 10:02:41;;;;;;;4.40;2.72;;;;;;;12.01;78.95;98219.81;5038404;28;20044;-76
2024/03/16 10:05:11;;;;;;;4.95;2.78;;;;;;;11.55;79.51;98166.34;5038828;28;20499;-76
2024/03/16 10:07:40;;;;;;;5.10;2.65;;;;;;;12.05;79.28;98234.41;5066301;28;20093;-76
2024/03/16 10:10:10;;;;;;;3.83;2.75;;;;;;;11.97;79.87;98209.75;5060554;28;20082;-76
2024/03/16 10:12:38;;;;;;;3.47;2.75;;;;;;;12.16;79.53;98240.75;5046087;28;20377;-76
2024/03/16 10:15:19;;;;;;;3.03;2.65;;;;;;;12.14;80.87;98230.19;5026798;28;20024;-77
2024/03/16 10:17:45;;;;;;;3.25;2.88;;;;;;;12.24;80.56;98241.13;5039910;28;20033;-77
2024/03/16 10:20:15;;;;;;;3.17;2.58;;;;;;;12.19;80.90;98230.25;5052127;28;20543;-77
2024/03/16 10:22:44;;;;;;;4.30;2.70;;;;;;;12.35;81.56;98226.63;5070029;28;20043;-77
2024/03/16 10:25:10;;;;;;;3.33;2.65;;;;;;;12.20;81.37;98221.09;5016957;28;20027;-77
2024/03/16 10:27:37;;;;;;;2.60;2.35;;;;;;;12.34;81.21;98241.22;5034459;28;20040;-76
2024/03/16 10:30:04;;;;;;;2.88;2.58;;;;;;;12.27;80.96;98229.81;5055356;28;20028;-77
2024/03/16 10:32:29;;;;;;;2.90;2.47;;;;;;;12.12;81.19;98216.13;5033190;28;20051;-77
2024/03/16 10:34:55;;;;;;;3.03;2.72;;;;;;;12.34;80.73;98235.81;5051024;28;20464;-76
2024/03/16 10:37:21;;;;;;;3.53;3.13;;;;;;;12.35;81.10;98245.53;5034967;28;20108;-77
2024/03/16 10:39:48;;;;;;;3.38;3.08;;;;;;;12.41;81.44;98206.72;5055964;28;20387;-76
2024/03/16 10:42:15;;;;;;;3.25;2.97;;;;;;;12.71;80.94;98218.88;5031381;28;20033;-76
2024/03/16 10:44:46;;;;;;;4.38;3.25;;;;;;;12.76;81.50;98221.63;5045796;28;20025;-76
2024/03/16 10:47:14;;;;;;;3.53;3.22;;;;;;;12.64;81.08;98200.19;5055289;28;20043;-76
2024/03/16 10:49:39;;;;;;;4.65;3.30;;;;;;;12.81;80.33;98218.97;5041424;28;20031;-77
2024/03/16 10:52:10;;;;;;;3.60;3.08;;;;;;;12.34;81.28;98208.81;5037390;28;20478;-77
2024/03/16 10:54:35;;;;;;;5.45;3.50;;;;;;;12.59;81.28;98247.94;5035659;28;20032;-76
2024/03/16 10:57:01;;;;;;;3.83;3.58;;;;;;;12.54;81.59;98250.59;5053713;28;20097;-76
2024/03/16 10:59:32;;;;;;;3.90;3.50;;;;;;;12.68;81.75;98268.84;5048422;28;20128;-77
2024/03/16 11:01:58;;;;;;;3.60;3.30;;;;;;;12.34;82.40;98254.72;5067554;28;20033;-77
2024/03/16 11:04:24;;;;;;;4.22;3.85;;;;;;;12.18;83.49;98228.59;5051373;28;20033;-77
2024/03/16 11:06:52;;;;;;;4.82;4.30;;;;;;;12.17;85.35;98218.91;5052312;28;20048;-77
2024/03/16 11:09:32;;;;;;;5.72;5.25;;;;;;;12.50;85.70;98261.09;5030358;28;20025;-77
2024/03/16 11:12:00;;;;;;;5.70;5.18;;;;;;;12.53;86.30;98246.28;5052461;28;20060;-77
2024/03/16 11:14:26;;;;;;;5.53;5.07;;;;;;;12.65;86.95;98257.75;5042359;28;20016;-77
2024/03/16 11:16:51;;;;;;;5.97;5.47;;;;;;;12.76;87.12;98232.44;5049641;28;20036;-77
2024/03/16 11:19:17;;;;;;;6.45;5.85;;;;;;;12.84;86.97;98223.84;5047070;28;20439;-77
2024/03/16 11:21:48;;;;;;;5.35;4.95;;;;;;;13.08;85.43;98235.97;5049167;28;20503;-77
2024/03/16 11:24:16;;;;;;;5.32;4.40;;;;;;;13.01;85.24;98246.16;5031058;28;20044;-77
2024/03/16 11:26:43;;;;;;;5.25;4.85;;;;;;;13.12;85.22;98247.88;5046052;28;20103;-77
2024/03/16 11:29:15;;;;;;;4.55;4.15;;;;;;;13.20;83.35;98258.22;5067620;28;20040;-77
2024/03/16 11:31:42;;;;;;;4.40;3.90;;;;;;;13.20;83.35;98266.34;5051306;28;20043;-77